Time;durP1;ratioP1;P1;durP2;ratioP2;P2;SDS_P1;SDS_P2;PMS_P1;PMS_P2;Temp;Humidity;BMP_temperature;BMP_pressure;BME280_temperature;BME280_humidity;BME280_pressure;Samples;Min_cycle;Max_cycle;Signal;HPM_P1;HPM_P2
2023/01/08 00:00:06;;;;;;;20.50;12.73;;;;;;;-7.21;80.04;101139.63;1654340;85;21068;-74
2023/01/08 00:02:35;;;;;;;23.57;11.07;;;;;;;-7.19;79.76;101135.13;1654063;86;21072;-79
2023/01/08 00:05:03;;;;;;;20.00;10.03;;;;;;;-7.17;79.61;101128.03;1654219;85;21107;-75
2023/01/08 00:07:30;;;;;;;19.23;11.87;;;;;;;-7.21;79.02;101138.79;1654559;86;21099;-80
2023/01/08 00:09:57;;;;;;;25.37;12.17;;;;;;;-7.23;79.22;101140.66;1652587;85;21018;-80
2023/01/08 00:12:24;;;;;;;22.43;12.20;;;;;;;-7.21;79.09;101147.94;1654508;86;21038;-79
2023/01/08 00:14:51;;;;;;;19.93;10.77;;;;;;;-7.24;78.99;101148.15;1654553;86;20997;-76
2023/01/08 00:17:17;;;;;;;17.53;10.63;;;;;;;-7.18;79.20;101144.64;1654924;85;21530;-75
2023/01/08 00:19:44;;;;;;;14.83;10.70;;;;;;;-7.20;78.66;101145.23;1654321;85;22221;-76
2023/01/08 00:22:12;;;;;;;18.03;9.37;;;;;;;-7.26;78.65;101140.86;1654371;86;21046;-78
2023/01/08 00:24:38;;;;;;;22.50;11.63;;;;;;;-7.28;78.84;101138.81;1651679;85;21797;-79
2023/01/08 00:27:05;;;;;;;23.50;12.40;;;;;;;-7.26;78.94;101131.72;1627786;86;21337;-78
2023/01/08 00:29:33;;;;;;;21.83;12.47;;;;;;;-7.33;78.83;101139.58;1653075;86;21065;-79
2023/01/08 00:32:00;;;;;;;20.63;11.33;;;;;;;-7.35;79.04;101134.47;1654220;86;21265;-86
2023/01/08 00:34:26;;;;;;;18.33;10.70;;;;;;;-7.35;79.01;101138.86;1654155;86;21037;-85
2023/01/08 00:36:52;;;;;;;14.70;10.40;;;;;;;-7.30;79.17;101140.23;1654306;85;21065;-83
2023/01/08 00:39:20;;;;;;;17.00;9.20;;;;;;;-7.34;78.97;101140.08;1654046;85;21049;-84
2023/01/08 00:41:48;;;;;;;14.87;10.50;;;;;;;-7.37;78.96;101128.96;1663972;85;21132;-81
2023/01/08 00:44:15;;;;;;;14.80;8.40;;;;;;;-7.43;78.86;101137.22;1682499;85;21151;-80
2023/01/08 00:46:42;;;;;;;19.07;12.03;;;;;;;-7.46;78.83;101134.32;1655784;84;21057;-78
2023/01/08 00:49:08;;;;;;;25.03;12.80;;;;;;;-7.50;78.77;101133.69;1654454;84;21010;-77
2023/01/08 00:51:36;;;;;;;21.23;11.50;;;;;;;-7.59;78.93;101140.81;1654198;85;20998;-75
2023/01/08 00:54:03;;;;;;;20.93;13.23;;;;;;;-7.54;79.26;101136.59;1654542;85;21560;-75
2023/01/08 00:56:30;;;;;;;20.30;11.93;;;;;;;-7.44;79.10;101136.38;1650901;85;21098;-75
2023/01/08 00:58:56;;;;;;;11.30;8.20;;;;;;;-7.43;78.79;101139.83;1638378;87;21062;-72
2023/01/08 01:01:24;;;;;;;9.07;7.70;;;;;;;-7.53;78.65;101133.06;1639494;87;21054;-75
2023/01/08 01:03:50;;;;;;;22.43;10.90;;;;;;;-7.62;78.83;101137.54;1639165;87;21054;-76
2023/01/08 01:06:17;;;;;;;17.73;9.90;;;;;;;-7.73;78.95;101140.02;1639287;87;21107;-74
2023/01/08 01:08:45;;;;;;;17.13;10.97;;;;;;;-7.78;79.31;101137.70;1638905;87;21066;-80
2023/01/08 01:11:21;;;;;;;21.57;10.63;;;;;;;-7.74;79.61;101134.42;1639667;87;21051;-84
2023/01/08 01:13:48;;;;;;;23.67;12.93;;;;;;;-7.69;79.63;101130.59;1639350;87;21010;-78
2023/01/08 01:16:14;;;;;;;16.83;10.60;;;;;;;-7.60;79.65;101136.98;1638890;87;21114;-79
2023/01/08 01:18:41;;;;;;;19.00;11.77;;;;;;;-7.61;79.18;101132.23;1653705;85;21076;-75
2023/01/08 01:21:21;;;;;;;18.07;10.07;;;;;;;-7.68;79.31;101130.97;1660060;86;21800;-77
2023/01/08 01:23:48;;;;;;;19.33;9.57;;;;;;;-7.63;79.38;101135.42;1661593;85;20993;-83
2023/01/08 01:26:16;;;;;;;15.97;9.67;;;;;;;-7.51;79.37;101137.70;1654230;86;21043;-81
2023/01/08 01:28:43;;;;;;;20.63;12.27;;;;;;;-7.48;79.16;101140.59;1653443;85;21288;-85
2023/01/08 01:31:12;;;;;;;18.73;10.70;;;;;;;-7.51;79.13;101133.31;1654209;85;21049;-86
2023/01/08 01:33:39;;;;;;;28.03;14.90;;;;;;;-7.43;79.23;101122.35;1653405;86;21150;-84
2023/01/08 01:36:06;;;;;;;28.57;14.83;;;;;;;-7.44;78.91;101119.40;1654338;86;20992;-83
2023/01/08 01:38:35;;;;;;;24.50;11.73;;;;;;;-7.44;79.02;101114.17;1621416;86;21033;-79
2023/01/08 01:41:01;;;;;;;23.63;14.87;;;;;;;-7.45;78.90;101116.41;1654989;85;21098;-83
2023/01/08 01:43:37;;;;;;;23.67;12.07;;;;;;;-7.50;78.97;101114.09;1662363;85;21029;-84
2023/01/08 01:46:07;;;;;;;18.70;12.23;;;;;;;-7.40;79.25;101109.58;1654680;85;21095;-87
2023/01/08 01:48:34;;;;;;;32.87;15.60;;;;;;;-7.47;78.69;101112.20;1653616;85;21811;-79
2023/01/08 01:51:01;;;;;;;22.70;14.37;;;;;;;-7.54;78.90;101116.55;1654771;85;20942;-76
2023/01/08 01:53:30;;;;;;;25.43;12.90;;;;;;;-7.55;78.79;101121.86;1654323;85;21057;-88
2023/01/08 01:55:57;;;;;;;19.87;10.97;;;;;;;-7.55;78.69;101117.47;1654531;85;21061;-80
2023/01/08 01:58:28;;;;;;;22.17;12.30;;;;;;;-7.61;78.36;101120.94;1653736;86;21783;-82
2023/01/08 02:00:59;;;;;;;24.27;12.37;;;;;;;-7.67;78.40;101123.47;1651975;84;21032;-80
2023/01/08 02:03:31;;;;;;;15.93;11.00;;;;;;;-7.69;78.59;101121.45;1649829;86;21031;-78
2023/01/08 02:06:25;;;;;;;23.40;13.30;;;;;;;-7.67;78.79;101121.33;1634738;87;21063;-79
2023/01/08 02:09:18;;;;;;;22.80;12.60;;;;;;;-7.62;78.88;101127.09;1646944;85;21052;-77
2023/01/08 02:12:17;;;;;;;27.30;11.63;;;;;;;-7.59;78.75;101131.67;1650400;87;21236;-78
2023/01/08 02:15:10;;;;;;;25.80;12.63;;;;;;;-7.45;78.99;101131.24;1649858;85;21119;-78
2023/01/08 02:18:08;;;;;;;19.73;12.37;;;;;;;-7.32;78.69;101124.27;1649831;86;21096;-77
2023/01/08 02:20:44;;;;;;;21.87;12.97;;;;;;;-7.22;78.59;101129.27;1650391;87;21016;-77
2023/01/08 02:23:28;;;;;;;25.87;14.10;;;;;;;-7.17;78.18;101129.34;1650165;87;21034;-77
2023/01/08 02:26:21;;;;;;;30.43;13.03;;;;;;;-7.17;77.96;101121.96;1649635;87;22202;-77
2023/01/08 02:29:09;;;;;;;24.90;11.77;;;;;;;-7.16;77.73;101127.09;1649728;86;21028;-74
2023/01/08 02:31:39;;;;;;;21.13;12.43;;;;;;;-7.13;77.88;101123.43;1649947;84;21021;-75
2023/01/08 02:34:05;;;;;;;14.93;10.33;;;;;;;-7.21;77.61;101121.80;1651603;86;21127;-84
2023/01/08 02:36:43;;;;;;;21.70;11.83;;;;;;;-7.32;77.66;101122.50;1651765;85;21035;-86
2023/01/08 02:39:24;;;;;;;22.93;13.13;;;;;;;-7.30;78.01;101132.39;1652853;85;22549;-87
2023/01/08 02:42:07;;;;;;;18.13;10.80;;;;;;;-7.32;77.69;101129.50;1655246;85;21319;-87
2023/01/08 02:44:57;;;;;;;23.37;11.13;;;;;;;-7.27;77.93;101130.03;1681406;85;21131;-87
2023/01/08 02:47:43;;;;;;;20.03;10.37;;;;;;;-7.26;77.91;101133.02;1675209;85;21036;-86
2023/01/08 02:50:27;;;;;;;19.80;10.30;;;;;;;-7.19;78.03;101127.75;1653969;86;21047;-86
2023/01/08 02:53:16;;;;;;;18.97;9.97;;;;;;;-7.18;77.64;101122.42;1653997;86;21096;-85
2023/01/08 02:55:47;;;;;;;16.03;9.30;;;;;;;-7.19;77.64;101127.75;1653852;85;21288;-84
2023/01/08 02:58:14;;;;;;;18.20;9.93;;;;;;;-7.20;77.75;101126.94;1653881;86;21028;-79
2023/01/08 03:00:41;;;;;;;18.00;9.80;;;;;;;-7.21;77.71;101126.56;1652483;86;21049;-87
2023/01/08 03:03:17;;;;;;;19.57;10.53;;;;;;;-7.24;77.60;101119.41;1634657;87;21505;-82
2023/01/08 03:05:52;;;;;;;17.23;10.90;;;;;;;-7.32;77.48;101124.27;1635168;87;21058;-87
2023/01/08 03:08:20;;;;;;;21.93;12.43;;;;;;;-7.35;77.74;101125.79;1626213;87;21520;-73
2023/01/08 03:10:58;;;;;;;19.67;10.50;;;;;;;-7.26;78.01;101124.72;1624000;87;21647;-73
2023/01/08 03:13:28;;;;;;;20.07;12.17;;;;;;;-7.20;77.97;101123.02;1635443;87;21611;-77
2023/01/08 03:15:57;;;;;;;21.10;10.97;;;;;;;-7.17;77.98;101120.66;1632947;86;21065;-85
2023/01/08 03:18:32;;;;;;;21.37;12.27;;;;;;;-7.20;78.04;101114.33;1627272;86;22339;-87
2023/01/08 03:21:01;;;;;;;7.53;6.67;;;;;;;-7.28;78.12;101108.75;1656254;86;21044;-82
2023/01/08 03:23:27;;;;;;;22.30;11.00;;;;;;;-7.40;78.30;101111.72;1647096;86;21719;-79
2023/01/08 03:25:54;;;;;;;19.47;10.47;;;;;;;-7.39;78.38;101102.95;1652771;86;21067;-82
2023/01/08 03:28:28;;;;;;;18.27;11.30;;;;;;;-7.33;78.36;101112.14;1655355;85;21056;-84
2023/01/08 03:30:52;;;;;;;16.87;10.50;;;;;;;-7.32;78.30;101104.67;1655556;86;21230;-84
2023/01/08 03:33:22;;;;;;;22.07;11.60;;;;;;;-7.34;78.28;101105.26;1654851;85;21148;-90
2023/01/08 03:35:51;;;;;;;20.97;10.90;;;;;;;-7.39;78.33;101112.56;1641275;86;20962;-82
2023/01/08 03:38:23;;;;;;;16.03;9.57;;;;;;;-7.37;78.58;101117.20;1661209;85;21604;-83
2023/01/08 03:40:56;;;;;;;19.77;12.13;;;;;;;-7.42;78.52;101117.50;1653007;86;21121;-83
2023/01/08 03:43:23;;;;;;;16.43;10.10;;;;;;;-7.50;78.70;101118.48;1641290;86;21348;-86
2023/01/08 03:45:54;;;;;;;14.23;9.47;;;;;;;-7.50;79.09;101118.02;1639484;86;21159;-82
2023/01/08 03:48:20;;;;;;;18.23;12.27;;;;;;;-7.50;79.18;101119.32;1646455;86;21100;-84
2023/01/08 03:50:47;;;;;;;20.10;9.57;;;;;;;-7.44;79.43;101114.64;1651693;86;21108;-83
2023/01/08 03:53:14;;;;;;;14.73;8.97;;;;;;;-7.51;79.45;101110.27;1639647;86;21064;-82
2023/01/08 03:55:41;;;;;;;18.00;10.47;;;;;;;-7.57;79.50;101106.73;1653964;86;21092;-86
2023/01/08 03:58:07;;;;;;;19.13;10.67;;;;;;;-7.55;79.70;101114.02;1649454;86;21153;-86
2023/01/08 04:00:34;;;;;;;20.80;9.37;;;;;;;-7.49;79.71;101114.94;1654403;86;21121;-86
2023/01/08 04:03:00;;;;;;;21.87;12.27;;;;;;;-7.39;79.72;101116.02;1654016;85;21117;-86
2023/01/08 04:05:27;;;;;;;19.20;11.33;;;;;;;-7.36;79.50;101119.72;1654250;86;21129;-88
2023/01/08 04:07:55;;;;;;;20.00;11.30;;;;;;;-7.37;79.52;101128.49;1651251;86;21264;-90
2023/01/08 04:10:23;;;;;;;15.93;9.37;;;;;;;-7.29;79.77;101127.52;1654331;85;22396;-88
2023/01/08 04:12:50;;;;;;;13.83;9.90;;;;;;;-7.18;79.58;101131.58;1654455;85;21120;-88
2023/01/08 04:15:16;;;;;;;14.67;8.97;;;;;;;-7.19;79.13;101135.13;1654583;86;21046;-89
2023/01/08 04:17:42;;;;;;;14.73;9.33;;;;;;;-7.20;79.12;101130.86;1651653;84;21061;-89
2023/01/08 04:20:10;;;;;;;17.90;10.10;;;;;;;-7.25;79.05;101126.87;1654029;86;21230;-89
2023/01/08 04:22:37;;;;;;;11.50;9.07;;;;;;;-7.28;79.16;101127.05;1642788;86;21073;-87
2023/01/08 04:25:04;;;;;;;16.67;9.80;;;;;;;-7.22;79.25;101130.57;1654647;85;21100;-90
2023/01/08 04:27:31;;;;;;;15.70;9.90;;;;;;;-7.17;79.14;101129.34;1636816;87;20965;-88
2023/01/08 04:29:58;;;;;;;18.43;10.23;;;;;;;-7.16;79.00;101127.09;1650330;86;21022;-87
2023/01/08 04:32:24;;;;;;;16.73;10.57;;;;;;;-7.13;78.98;101125.58;1654584;85;21611;-87
2023/01/08 04:34:50;;;;;;;16.90;9.63;;;;;;;-7.11;78.74;101132.02;1655864;83;20942;-87
2023/01/08 04:37:17;;;;;;;16.90;10.30;;;;;;;-7.11;78.71;101130.71;1654778;86;21510;-83
2023/01/08 04:39:43;;;;;;;12.53;8.00;;;;;;;-7.14;78.30;101125.20;1655287;86;21057;-83
2023/01/08 04:42:10;;;;;;;17.23;10.40;;;;;;;-7.26;78.13;101128.64;1655965;86;21021;-84
2023/01/08 04:44:36;;;;;;;19.50;10.83;;;;;;;-7.32;78.29;101132.11;1630963;86;21346;-83
2023/01/08 04:47:03;;;;;;;23.17;11.83;;;;;;;-7.33;78.50;101136.96;1636097;85;21032;-82
2023/01/08 04:49:30;;;;;;;16.27;9.60;;;;;;;-7.31;78.45;101129.88;1648188;86;21030;-82
2023/01/08 04:51:56;;;;;;;19.00;9.17;;;;;;;-7.22;78.64;101139.72;1664249;85;21084;-84
2023/01/08 04:54:23;;;;;;;17.67;8.00;;;;;;;-7.18;78.58;101136.80;1665996;85;21053;-80
2023/01/08 04:56:50;;;;;;;21.37;11.13;;;;;;;-7.16;78.34;101138.86;1625020;87;21138;-84
2023/01/08 04:59:17;;;;;;;19.90;10.97;;;;;;;-7.25;78.31;101130.32;1654656;85;21089;-84
2023/01/08 05:01:44;;;;;;;18.40;10.53;;;;;;;-7.37;78.53;101135.49;1636587;86;21068;-84
2023/01/08 05:04:10;;;;;;;16.83;11.57;;;;;;;-7.43;78.82;101139.34;1656649;86;21096;-85
2023/01/08 05:06:38;;;;;;;18.97;10.47;;;;;;;-7.38;79.01;101136.42;1656492;86;20954;-85
2023/01/08 05:09:05;;;;;;;14.80;9.20;;;;;;;-7.31;79.07;101146.86;1654989;86;21084;-86
2023/01/08 05:11:34;;;;;;;15.17;9.33;;;;;;;-7.34;78.86;101152.30;1655806;86;21597;-85
2023/01/08 05:14:00;;;;;;;23.43;10.13;;;;;;;-7.37;78.94;101148.55;1642944;86;21585;-84
2023/01/08 05:16:28;;;;;;;15.27;9.37;;;;;;;-7.40;78.75;101155.30;1654123;86;21577;-84
2023/01/08 05:18:55;;;;;;;17.40;10.63;;;;;;;-7.43;78.89;101156.81;1654917;85;21656;-86
2023/01/08 05:21:22;;;;;;;17.33;10.17;;;;;;;-7.41;79.14;101147.09;1657082;85;21127;-85
2023/01/08 05:23:49;;;;;;;17.80;10.13;;;;;;;-7.38;79.14;101143.80;1657042;86;20994;-87
2023/01/08 05:26:18;;;;;;;21.73;11.13;;;;;;;-7.38;79.10;101140.34;1655268;86;20954;-87
2023/01/08 05:28:44;;;;;;;21.73;8.77;;;;;;;-7.34;79.05;101143.99;1657725;86;20974;-87
2023/01/08 05:31:13;;;;;;;18.17;10.47;;;;;;;-7.35;78.92;101141.47;1658424;86;20911;-86
2023/01/08 05:33:40;;;;;;;21.10;10.53;;;;;;;-7.38;79.00;101139.03;1655948;86;21134;-79
2023/01/08 05:36:07;;;;;;;16.60;9.47;;;;;;;-7.34;79.16;101146.61;1654259;86;20989;-77
2023/01/08 05:38:34;;;;;;;19.07;11.33;;;;;;;-7.28;79.00;101151.87;1640559;86;21103;-78
2023/01/08 05:41:03;;;;;;;23.27;10.87;;;;;;;-7.26;78.97;101146.93;1654122;86;21100;-80
2023/01/08 05:43:30;;;;;;;20.53;9.30;;;;;;;-7.26;78.92;101146.93;1608088;88;21017;-77
2023/01/08 05:45:59;;;;;;;21.97;9.63;;;;;;;-7.28;78.87;101147.95;1627395;88;21184;-79
2023/01/08 05:48:27;;;;;;;15.57;9.53;;;;;;;-7.33;78.79;101149.56;1640285;86;21067;-81
2023/01/08 05:50:53;;;;;;;11.80;7.47;;;;;;;-7.40;79.01;101153.53;1654394;86;21089;-80
2023/01/08 05:53:21;;;;;;;18.57;11.13;;;;;;;-7.39;79.48;101149.14;1661701;85;21741;-83
2023/01/08 05:55:50;;;;;;;19.27;9.10;;;;;;;-7.41;79.46;101152.31;1661747;85;21026;-84
2023/01/08 05:58:18;;;;;;;14.33;7.47;;;;;;;-7.42;79.63;101152.78;1639843;86;21417;-83
2023/01/08 06:00:44;;;;;;;13.40;9.30;;;;;;;-7.47;79.87;101153.54;1654173;86;21001;-84
2023/01/08 06:03:11;;;;;;;14.37;9.80;;;;;;;-7.52;79.96;101153.84;1654449;86;21071;-84
2023/01/08 06:05:38;;;;;;;14.90;9.83;;;;;;;-7.49;80.23;101161.96;1654362;86;21076;-85
2023/01/08 06:08:04;;;;;;;13.40;8.43;;;;;;;-7.40;80.45;101168.36;1653785;86;21077;-83
2023/01/08 06:10:32;;;;;;;17.77;9.57;;;;;;;-7.30;80.33;101167.67;1621419;86;21175;-83
2023/01/08 06:12:58;;;;;;;16.60;9.57;;;;;;;-7.31;80.31;101168.61;1654033;85;21045;-81
2023/01/08 06:15:26;;;;;;;18.73;10.10;;;;;;;-7.20;80.44;101163.99;1652498;83;21036;-82
2023/01/08 06:17:53;;;;;;;13.63;9.07;;;;;;;-7.19;80.28;101173.48;1638528;85;21104;-80
2023/01/08 06:20:19;;;;;;;20.80;9.90;;;;;;;-7.20;80.23;101171.84;1625982;87;21632;-82
2023/01/08 06:22:46;;;;;;;14.00;7.27;;;;;;;-7.22;80.25;101164.55;1606177;88;21822;-81
2023/01/08 06:25:12;;;;;;;14.43;9.13;;;;;;;-7.21;80.29;101164.46;1627712;86;20929;-81
2023/01/08 06:27:39;;;;;;;16.60;7.93;;;;;;;-7.22;80.27;101169.78;1626510;87;21546;-80
2023/01/08 06:30:08;;;;;;;15.37;9.03;;;;;;;-7.20;80.43;101166.14;1625715;87;21585;-81
2023/01/08 06:32:35;;;;;;;14.97;8.50;;;;;;;-7.18;80.34;101162.94;1605990;88;21088;-89
2023/01/08 06:35:03;;;;;;;16.10;10.93;;;;;;;-7.13;80.43;101162.64;1604360;87;21944;-88
2023/01/08 06:37:30;;;;;;;19.57;9.90;;;;;;;-7.18;80.32;101156.88;1626479;86;21612;-86
2023/01/08 06:39:57;;;;;;;15.37;8.17;;;;;;;-7.25;80.38;101170.83;1661746;85;21034;-85
2023/01/08 06:42:23;;;;;;;17.40;11.77;;;;;;;-7.19;80.62;101166.48;1626981;86;21830;-84
2023/01/08 06:44:50;;;;;;;16.47;10.93;;;;;;;-7.13;80.49;101173.09;1609606;86;21051;-85
2023/01/08 06:47:21;;;;;;;20.53;11.20;;;;;;;-7.13;80.41;101170.48;1650963;86;21570;-87
2023/01/08 06:49:48;;;;;;;15.20;8.30;;;;;;;-7.18;80.59;101173.86;1654471;85;20930;-85
2023/01/08 06:52:15;;;;;;;22.67;11.23;;;;;;;-7.22;80.74;101177.62;1648472;86;21077;-88
2023/01/08 06:54:44;;;;;;;14.53;11.03;;;;;;;-7.26;80.99;101168.30;1628305;86;21075;-89
2023/01/08 06:57:13;;;;;;;14.73;8.43;;;;;;;-7.25;81.12;101164.77;1625695;87;21498;-85
2023/01/08 06:59:40;;;;;;;17.97;11.47;;;;;;;-7.28;81.32;101167.55;1659419;86;21112;-85
2023/01/08 07:02:14;;;;;;;19.00;10.23;;;;;;;-7.32;81.42;101173.92;1626655;87;21043;-86
2023/01/08 07:04:42;;;;;;;18.47;12.00;;;;;;;-7.37;81.56;101175.53;1608207;87;21067;-84
2023/01/08 07:07:12;;;;;;;10.33;7.03;;;;;;;-7.38;81.66;101174.31;1613540;87;21027;-85
2023/01/08 07:09:42;;;;;;;8.43;6.03;;;;;;;-7.29;81.97;101181.59;1639086;87;21602;-83
2023/01/08 07:12:12;;;;;;;19.70;9.80;;;;;;;-7.26;81.93;101176.98;1636846;87;21237;-83
2023/01/08 07:14:39;;;;;;;13.17;9.47;;;;;;;-7.18;81.87;101170.78;1623775;87;21068;-84
2023/01/08 07:17:08;;;;;;;14.73;9.77;;;;;;;-7.14;81.55;101171.41;1638699;87;21030;-81
2023/01/08 07:19:35;;;;;;;18.63;10.53;;;;;;;-7.17;81.39;101172.93;1635980;87;21071;-84
2023/01/08 07:22:01;;;;;;;15.47;8.57;;;;;;;-7.19;81.39;101170.88;1642774;86;21081;-85
2023/01/08 07:24:28;;;;;;;35.07;23.30;;;;;;;-7.17;81.43;101164.62;1604924;88;22098;-83
2023/01/08 07:26:55;;;;;;;22.03;14.13;;;;;;;-7.20;81.26;101158.77;1624741;88;21139;-86
2023/01/08 07:29:22;;;;;;;19.03;11.33;;;;;;;-7.16;81.38;101168.08;1660967;86;21009;-84
2023/01/08 07:31:49;;;;;;;15.93;10.33;;;;;;;-7.07;81.53;101170.92;1663855;84;21072;-86
2023/01/08 07:34:17;;;;;;;9.43;7.07;;;;;;;-7.02;81.38;101162.78;1637150;86;21071;-84
2023/01/08 07:36:44;;;;;;;17.93;9.63;;;;;;;-6.96;80.92;101170.69;1627778;87;21339;-84
2023/01/08 07:39:11;;;;;;;19.47;12.97;;;;;;;-7.06;80.74;101160.00;1661391;86;21054;-85
2023/01/08 07:41:37;;;;;;;18.57;8.23;;;;;;;-7.17;80.96;101162.01;1661574;85;21221;-82
2023/01/08 07:44:04;;;;;;;22.77;9.63;;;;;;;-7.18;81.35;101160.80;1635091;85;21097;-85
2023/01/08 07:46:33;;;;;;;14.07;7.53;;;;;;;-7.16;81.44;101166.30;1632459;85;21368;-81
2023/01/08 07:49:02;;;;;;;17.33;10.07;;;;;;;-7.13;81.49;101171.78;1634272;86;21068;-89
2023/01/08 07:51:29;;;;;;;20.10;10.03;;;;;;;-7.11;81.51;101170.77;1640036;87;20951;-80
2023/01/08 07:53:57;;;;;;;21.87;12.07;;;;;;;-7.04;81.51;101175.09;1654492;86;21050;-88
2023/01/08 07:56:24;;;;;;;17.40;10.40;;;;;;;-6.98;81.30;101169.48;1653649;85;21042;-87
2023/01/08 07:58:51;;;;;;;20.27;10.23;;;;;;;-6.96;81.28;101169.38;1654990;86;21081;-90
2023/01/08 08:01:17;;;;;;;15.57;10.13;;;;;;;-6.95;81.22;101172.37;1642700;86;21717;-87
2023/01/08 08:03:44;;;;;;;15.27;9.40;;;;;;;-6.91;81.39;101169.92;1653376;85;21060;-88
2023/01/08 08:06:13;;;;;;;22.40;11.47;;;;;;;-6.80;81.44;101172.17;1653830;85;21085;-88
2023/01/08 08:08:40;;;;;;;20.00;11.43;;;;;;;-6.59;81.57;101167.75;1620667;87;21100;-89
2023/01/08 08:11:07;;;;;;;14.53;8.17;;;;;;;-6.55;80.45;101178.36;1622565;87;21053;-88
2023/01/08 08:13:41;;;;;;;16.83;10.53;;;;;;;-6.57;80.31;101178.95;1631866;87;21237;-87
2023/01/08 08:16:06;;;;;;;21.37;10.90;;;;;;;-6.61;79.95;101183.07;1642633;86;21533;-89
2023/01/08 08:18:35;;;;;;;17.13;8.23;;;;;;;-6.61;80.14;101182.23;1641662;85;20998;-89
2023/01/08 08:21:01;;;;;;;14.43;9.60;;;;;;;-6.61;80.00;101180.92;1636965;86;21131;-85
2023/01/08 08:23:31;;;;;;;20.60;12.50;;;;;;;-6.56;80.18;101174.91;1651628;85;21050;-85
2023/01/08 08:25:58;;;;;;;17.67;9.07;;;;;;;-6.55;79.77;101182.29;1660432;85;22084;-83
2023/01/08 08:28:24;;;;;;;21.93;10.03;;;;;;;-6.51;79.75;101178.05;1657212;85;20981;-82
2023/01/08 08:30:53;;;;;;;22.40;11.93;;;;;;;-6.59;79.54;101180.83;1661805;85;32527;-81
2023/01/08 08:33:19;;;;;;;30.00;10.73;;;;;;;-6.63;79.75;101181.05;1634580;86;21552;-85
2023/01/08 08:35:49;;;;;;;15.77;10.13;;;;;;;-6.58;79.83;101170.73;1608205;87;21108;-81
2023/01/08 08:38:19;;;;;;;21.10;12.40;;;;;;;-6.53;79.71;101176.03;1615628;87;21161;-82
2023/01/08 08:40:47;;;;;;;15.10;10.00;;;;;;;-6.51;79.59;101172.81;1620624;86;21064;-81
2023/01/08 08:43:14;;;;;;;15.47;10.07;;;;;;;-6.49;79.67;101167.02;1632519;87;21064;-81
2023/01/08 08:45:45;;;;;;;19.47;11.60;;;;;;;-6.43;79.48;101169.23;1633068;86;21148;-84
2023/01/08 08:48:15;;;;;;;20.43;11.03;;;;;;;-6.46;79.49;101171.20;1610221;87;21175;-87
2023/01/08 08:50:42;;;;;;;22.87;11.83;;;;;;;-6.37;79.71;101164.86;1622814;87;21068;-86
2023/01/08 08:53:10;;;;;;;32.47;14.97;;;;;;;-6.30;79.58;101167.44;1633225;87;21151;-79
2023/01/08 08:55:38;;;;;;;27.03;14.23;;;;;;;-6.36;79.40;101165.23;1633678;87;20977;-83
2023/01/08 08:58:10;;;;;;;30.80;13.27;;;;;;;-6.40;79.68;101156.39;1611004;87;21091;-84
2023/01/08 09:00:39;;;;;;;24.27;12.87;;;;;;;-6.42;79.63;101163.50;1608365;88;21512;-83
2023/01/08 09:03:06;;;;;;;30.40;13.37;;;;;;;-6.47;79.69;101162.50;1631870;86;21244;-84
2023/01/08 09:05:36;;;;;;;26.03;13.00;;;;;;;-6.44;79.89;101160.17;1623482;87;21002;-85
2023/01/08 09:08:03;;;;;;;19.47;11.93;;;;;;;-6.39;80.08;101154.98;1632023;87;21105;-85
2023/01/08 09:10:30;;;;;;;25.63;12.33;;;;;;;-6.31;80.09;101151.36;1610786;87;21079;-83
2023/01/08 09:12:57;;;;;;;20.77;11.80;;;;;;;-6.27;79.72;101155.91;1632963;86;21152;-80
2023/01/08 09:15:24;;;;;;;18.40;12.20;;;;;;;-6.23;79.75;101154.27;1632545;87;22134;-83
2023/01/08 09:17:57;;;;;;;28.83;15.17;;;;;;;-6.14;79.85;101152.81;1630021;87;21623;-86
2023/01/08 09:20:25;;;;;;;22.07;11.23;;;;;;;-6.04;79.72;101152.52;1630799;87;21256;-84
2023/01/08 09:22:54;;;;;;;22.23;14.20;;;;;;;-5.94;79.47;101148.77;1632699;87;21067;-83
2023/01/08 09:25:21;;;;;;;23.57;13.53;;;;;;;-5.81;79.55;101141.70;1633664;86;21436;-85
2023/01/08 09:27:48;;;;;;;25.07;14.60;;;;;;;-5.70;78.70;101140.44;1633465;87;21275;-85
2023/01/08 09:30:17;;;;;;;26.93;13.33;;;;;;;-5.71;78.53;101146.66;1611291;87;21613;-88
2023/01/08 09:32:46;;;;;;;16.73;9.77;;;;;;;-5.67;78.53;101145.95;1632281;86;21163;-87
2023/01/08 09:35:18;;;;;;;25.57;12.93;;;;;;;-5.64;78.06;101141.32;1632859;86;21078;-86
2023/01/08 09:37:48;;;;;;;18.13;13.13;;;;;;;-5.64;78.09;101137.86;1589746;87;21119;-86
2023/01/08 09:40:15;;;;;;;22.20;11.90;;;;;;;-5.63;78.16;101140.38;1633537;87;21805;-87
2023/01/08 09:42:50;;;;;;;22.70;12.30;;;;;;;-5.67;78.08;101142.02;1604264;87;21022;-85
2023/01/08 09:45:25;;;;;;;18.43;11.27;;;;;;;-5.71;78.29;101134.87;1604988;89;21074;-84
2023/01/08 09:47:53;;;;;;;27.73;13.83;;;;;;;-5.69;78.32;101138.66;1596845;87;21603;-89
2023/01/08 09:50:20;;;;;;;26.20;12.80;;;;;;;-5.72;78.42;101137.95;1587986;88;21103;-87
2023/01/08 09:52:47;;;;;;;20.60;12.90;;;;;;;-5.68;78.42;101129.39;1599611;88;21162;-86
2023/01/08 09:55:15;;;;;;;19.77;12.37;;;;;;;-5.66;78.36;101132.75;1569588;88;21109;-86
2023/01/08 09:57:43;;;;;;;24.10;12.77;;;;;;;-5.62;78.22;101126.34;1586756;90;21089;-85
2023/01/08 10:00:22;;;;;;;26.70;14.70;;;;;;;-5.71;78.28;101133.55;1603809;87;21097;-85
2023/01/08 10:02:52;;;;;;;24.67;13.93;;;;;;;-5.74;78.57;101136.38;1616275;88;21087;-87
2023/01/08 10:05:19;;;;;;;25.47;14.50;;;;;;;-5.77;78.87;101138.75;1610510;88;21227;-84
2023/01/08 10:07:49;;;;;;;18.30;12.00;;;;;;;-5.66;79.05;101123.58;1593489;88;21010;-89
2023/01/08 10:10:22;;;;;;;;;;;;;;;-5.51;79.02;101119.82;1619485;87;21051;-89
2023/01/08 10:12:53;;;;;;;21.90;12.87;;;;;;;-5.37;77.72;101118.84;1614926;88;20150;-90
2023/01/08 10:15:24;;;;;;;22.07;12.33;;;;;;;-5.34;77.77;101110.27;1616466;88;21105;-84
2023/01/08 10:18:08;;;;;;;22.50;11.57;;;;;;;-5.23;77.77;101109.48;1616313;88;21892;-84
2023/01/08 10:20:38;;;;;;;19.33;11.80;;;;;;;-5.16;77.43;101103.28;1615755;88;21027;-87
2023/01/08 12:30:39;;;;;;;24.10;14.80;;;;;;;-4.86;73.25;101044.06;103101;1286;1003658;-74
2023/01/08 12:33:22;;;;;;;18.50;10.90;;;;;;;-4.81;73.19;101041.17;104405;1267;1003039;-72
2023/01/08 12:35:51;;;;;;;23.40;13.20;;;;;;;-4.70;73.12;101040.19;104916;1267;61515;-74
2023/01/08 12:38:21;;;;;;;21.70;13.10;;;;;;;-4.62;72.84;101039.21;105076;1267;71831;-78
2023/01/08 12:40:51;;;;;;;21.50;14.20;;;;;;;-4.57;72.70;101039.36;105008;1267;67492;-74
2023/01/08 12:43:22;;;;;;;21.80;13.50;;;;;;;-4.58;72.58;101037.98;103859;1265;1003395;-79
2023/01/08 12:45:51;;;;;;;26.10;13.30;;;;;;;-4.58;72.43;101032.27;104996;1272;61848;-78
2023/01/08 12:48:20;;;;;;;23.10;13.80;;;;;;;-4.57;72.52;101027.40;105059;1271;61813;-78
2023/01/08 12:50:58;;;;;;;22.80;16.60;;;;;;;-4.54;72.13;101022.27;105144;1268;70855;-77
2023/01/08 12:53:33;;;;;;;28.90;14.90;;;;;;;-4.52;72.15;101019.81;105231;1266;68436;-82
2023/01/08 12:56:12;;;;;;;24.50;14.30;;;;;;;-4.45;71.90;101019.33;104547;1266;1002626;-78
2023/01/08 12:59:03;;;;;;;20.40;13.80;;;;;;;-4.40;71.69;101011.02;105287;1266;62384;-79
2023/01/08 13:01:33;;;;;;;26.00;15.70;;;;;;;-4.41;71.09;101008.39;105229;1266;61976;-78
2023/01/08 13:04:00;;;;;;;17.70;8.50;;;;;;;-4.39;70.91;101008.80;105320;1267;74577;-83
2023/01/08 13:06:27;;;;;;;32.80;15.00;;;;;;;-4.34;70.43;101011.09;105094;1269;67791;-75
2023/01/08 13:08:54;;;;;;;24.20;13.40;;;;;;;-4.30;70.44;101009.01;105099;1272;72116;-83
2023/01/08 13:11:24;;;;;;;22.20;14.00;;;;;;;-4.29;70.12;101007.02;105118;1264;61732;-79
2023/01/08 13:14:01;;;;;;;21.60;16.00;;;;;;;-4.32;70.08;101007.61;104530;1267;1003213;-82
2023/01/08 13:16:30;;;;;;;32.80;13.40;;;;;;;-4.37;69.98;101003.98;105514;1269;73350;-80
2023/01/08 13:19:01;;;;;;;23.10;14.20;;;;;;;-4.46;70.17;101002.89;104432;1272;1003290;-79
2023/01/08 13:21:32;;;;;;;16.20;12.30;;;;;;;-4.47;70.36;101001.29;105022;1263;1003133;-78
2023/01/08 13:24:19;;;;;;;25.60;15.30;;;;;;;-4.50;70.45;101010.91;105667;1260;59721;-79
2023/01/08 13:26:46;;;;;;;29.60;13.70;;;;;;;-4.53;70.40;101011.20;105590;1262;61430;-75
2023/01/08 13:29:40;;;;;;;21.30;14.20;;;;;;;-4.59;70.09;101010.81;104997;1263;1003809;-76